Airfield :
LOGIN :

Register | Disclaimer

   EN    FR    IT 

 










Legend :    VFR   Marginal VFR   IFR   Intensive IFR   Very Intensive IFR
Visi :
Ceiling :
>= 8 km
>= 3000ft
5 to 8 km
1000 to 3000 ft
1500m to 5 km
500 to 1000 ft
800 to 1500m
200 to 500 ft
< 800m
< 200 ft
Symbols :   Thunderstorms  Fog  Heavy snow  Heavy precipitations  Wind > 20 kt
SIGMETs :     Misc.  Thunderstorms  Icing  Turbulence  Mountain Waves  Volcanic Ashes







- Airport Elevation : 290 ft
- IATA code : OSI


LDOS - Osijek

CURRENT METAR :
  • 220130Z 21007KT 9999 -RA SCT030 06/04 Q1023

EXPIRED METARs :
  • 220100Z 02003KT 360V070 9999 -RA NSC 07/03 Q1023
  • 220030Z 35007KT CAVOK 07/03 Q1024
  • 220000Z 30005KT CAVOK 06/02 Q1024
  • 212330Z 28003KT CAVOK 06/02 Q1024
  • 212300Z 22003KT CAVOK 06/01 Q1024

TAF TAF LDOS
Valid from the 22 at 00:00 until the 23 at 00:00 UTC


212325Z 2200/2300 30008KT 9999 SCT030 TX09/2214Z TNM04/2223Z
PROB40
TEMPO 2202/2217 4000 RA BKN005 OVC015
BECMG 2203/2206 30012KT
PROB30
TEMPO 2212/2216 SHRA SCT007 FEW020TCU BKN025
BECMG 2214/2216 03015KT
PROB40
TEMPO 2215/2300 03020G35KT
No reported NOTAMs for that airfield.



MET'MAP, your aeronautical weather chart ! - Copyright ORBIFLY December 2007 - Disclaimer

ORBIFLY MET'MAP TEAM :

Programming & Development : Alexandra Zaïnal
Concept & Development : Baudouin d'Aumeries
Co-Development & Prog : Marc-Olivier Méhu
Technical & hardware support : Manuel Goepfert

Contact : metmap@orbifly.com




SOURCES & CREDITS :

   NOAA